Day Summary

20th September 2014

This table shows hourly data for the given day.

Time Temperature Rain Max Rain
Rate
Wind Pressure
Mean High Low Avg High Dom Mean High Low
GMT °C °C °C mm mm/hr mph mph Dir mb mb mb
09:00 18.1 18.3 17.9 0.0 0.0 0.0 0 1009.4 1009.4 1009.1
10:00 17.8 17.9 17.8 0.0 0.0 0.0 0 1009.5 1009.5 1009.5
11:00 18.5 19.2 17.9 0.0 0.0 0.0 0 1009.8 1009.9 1009.5
12:00 19.6 19.9 19.2 0.0 0.0 0.0 1 1009.7 1009.7 1009.5
13:00 20.2 20.3 19.9 0.0 0.0 0.0 0 1009.4 1009.4 1009.4
14:00 19.5 20.1 19.1 0.0 0.0 0.0 0 1009.6 1009.8 1009.5
15:00 18.6 19.1 17.9 0.0 0.0 0.0 6 1009.9 1010.0 1009.8
16:00 17.6 17.9 17.3 0.0 0.0 0.0 5 1010.2 1010.5 1010.0
17:00 17.0 17.3 16.7 0.0 0.0 0.0 3 1010.8 1011.0 1010.5
18:00 16.4 16.7 16.1 0.0 0.0 0.0 3 1011.5 1011.9 1011.1
19:00 16.0 16.1 15.8 0.0 0.0 0.0 4 1012.2 1012.5 1012.0
20:00 15.7 15.8 15.6 0.0 0.0 0.0 4 1012.5 1012.6 1012.4
21:00 15.5 15.7 15.4 0.0 0.0 0.1 5 1012.7 1012.9 1012.6
22:00 15.4 15.4 15.4 0.0 0.0 0.0 3 1013.1 1013.2 1013.0
23:00 15.4 15.4 15.4 0.0 0.0 0.5 6 1013.2 1013.3 1013.2
00:00 15.4 15.4 15.3 0.0 0.0 0.3 5 1013.5 1013.6 1013.3
01:00 14.9 15.3 14.7 0.0 0.0 0.4 7 1013.6 1013.7 1013.6
02:00 14.5 14.7 14.4 0.0 0.0 0.2 6 1013.7 1013.7 1013.7
03:00 14.2 14.4 13.9 0.0 0.0 0.2 4 1014.0 1014.2 1013.9
04:00 13.6 13.9 13.3 0.0 0.0 0.0 6 1014.5 1014.7 1014.3
05:00 13.1 13.3 13.0 0.0 0.0 0.2 5 1015.2 1015.6 1014.8
06:00 13.1 13.2 13.1 0.0 0.0 0.2 6 1015.9 1016.1 1015.7
07:00 13.2 13.3 13.2 0.0 0.0 0.1 6 1016.3 1016.5 1016.2
08:00 14.0 14.8 13.3 0.0 0.0 0.5 6 1016.8 1016.9 1016.7
  16.2 20.3 13.0 0.0   0.1 7   1012.4 1016.9 1009.1
20
°C
0.0
mm
67
%
Save up to $90 with Dreamhost